createdAt,value
2018-11-26T00:00:31.814Z,4.50
2018-11-26T00:02:59.813Z,4.40
2018-11-26T00:05:27.820Z,4.40
2018-11-26T00:07:55.794Z,4.50
2018-11-26T00:10:29.357Z,4.50
2018-11-26T00:12:57.331Z,4.50
2018-11-26T00:15:25.418Z,4.50
2018-11-26T00:17:53.403Z,4.50
2018-11-26T00:20:21.353Z,4.40
2018-11-26T00:22:49.331Z,4.40
2018-11-26T00:25:17.284Z,4.40
2018-11-26T00:27:45.246Z,4.50
2018-11-26T00:30:13.181Z,4.50
2018-11-26T00:32:41.169Z,4.50
2018-11-26T00:35:09.162Z,4.50
2018-11-26T00:37:37.166Z,4.50
2018-11-26T00:40:05.890Z,4.50
2018-11-26T00:42:33.823Z,4.50
2018-11-26T00:45:01.814Z,4.50
2018-11-26T00:47:29.799Z,4.50
2018-11-26T00:49:57.758Z,4.50
2018-11-26T00:52:25.701Z,4.50
2018-11-26T00:54:53.787Z,4.50
2018-11-26T00:57:21.737Z,4.50
2018-11-26T00:59:49.717Z,4.50
2018-11-26T01:02:17.682Z,4.50
2018-11-26T01:04:45.740Z,4.40
2018-11-26T01:07:13.707Z,4.40
2018-11-26T01:09:41.618Z,4.40
2018-11-26T01:12:09.619Z,4.40
2018-11-26T01:14:37.612Z,4.50
2018-11-26T01:17:05.910Z,4.40
2018-11-26T01:19:33.907Z,4.40
2018-11-26T01:22:01.973Z,4.40
2018-11-26T01:24:29.874Z,4.40
2018-11-26T01:26:58.045Z,4.40
2018-11-26T01:29:26.038Z,4.40
2018-11-26T01:31:54.020Z,4.40
2018-11-26T01:34:22.112Z,4.40
2018-11-26T01:36:50.129Z,4.40
2018-11-26T01:39:18.151Z,4.40
2018-11-26T01:41:46.115Z,4.50
2018-11-26T01:44:14.121Z,4.50
2018-11-26T01:46:42.054Z,4.50
2018-11-26T01:49:10.079Z,4.50
2018-11-26T01:51:38.019Z,4.50
2018-11-26T01:54:06.394Z,4.50
2018-11-26T01:56:34.383Z,4.40
2018-11-26T01:59:02.347Z,4.50
2018-11-26T02:01:30.325Z,4.40
2018-11-26T02:03:58.250Z,4.50
2018-11-26T02:06:26.225Z,4.50
2018-11-26T02:08:54.166Z,4.50
2018-11-26T02:11:22.159Z,4.40
2018-11-26T02:13:50.179Z,4.40
2018-11-26T02:16:18.132Z,4.40
2018-11-26T02:18:46.340Z,4.40
2018-11-26T02:21:14.254Z,4.40
2018-11-26T02:23:42.379Z,4.40
2018-11-26T02:26:10.371Z,4.40
2018-11-26T02:28:38.302Z,4.40
2018-11-26T02:31:06.282Z,4.40
2018-11-26T02:33:34.279Z,4.40
2018-11-26T02:36:02.280Z,4.40
2018-11-26T02:38:30.246Z,4.40
2018-11-26T02:40:58.219Z,4.30
2018-11-26T02:43:26.170Z,4.40
2018-11-26T02:45:54.141Z,4.40
2018-11-26T02:48:22.066Z,4.40
2018-11-26T02:50:50.024Z,4.40
2018-11-26T02:53:17.973Z,4.40
2018-11-26T02:55:45.995Z,4.30
2018-11-26T02:58:13.955Z,4.40
2018-11-26T03:00:41.983Z,4.30
2018-11-26T03:03:09.996Z,4.30
2018-11-26T03:05:37.917Z,4.30
2018-11-26T03:08:05.872Z,4.30
2018-11-26T03:10:33.782Z,4.30
2018-11-26T03:13:02.205Z,4.30
2018-11-26T03:15:30.193Z,4.30
2018-11-26T03:17:58.181Z,4.30
2018-11-26T03:20:26.143Z,4.30
2018-11-26T03:22:54.126Z,4.30
2018-11-26T03:25:22.060Z,4.30
2018-11-26T03:27:50.036Z,4.30
2018-11-26T03:30:18.515Z,4.30
2018-11-26T03:32:46.456Z,4.20
2018-11-26T03:35:14.444Z,4.20
2018-11-26T03:37:42.416Z,4.20
2018-11-26T03:40:11.762Z,4.20
2018-11-26T03:42:39.708Z,4.20
2018-11-26T03:45:11.364Z,4.20
2018-11-26T03:47:39.285Z,4.20
2018-11-26T03:50:07.352Z,4.20
2018-11-26T03:52:35.361Z,4.20
2018-11-26T03:55:03.282Z,4.20
2018-11-26T03:57:31.236Z,4.20
2018-11-26T03:59:59.173Z,4.20
2018-11-26T04:02:27.192Z,4.20
2018-11-26T04:04:55.203Z,4.20
2018-11-26T04:07:23.137Z,4.20
2018-11-26T04:09:51.098Z,4.20
2018-11-26T04:12:19.023Z,4.10
2018-11-26T04:14:46.979Z,4.20
2018-11-26T04:17:14.902Z,4.10
2018-11-26T04:19:42.913Z,4.20
2018-11-26T04:22:10.860Z,4.20
2018-11-26T04:24:38.785Z,4.20
2018-11-26T04:27:06.730Z,4.20
2018-11-26T04:29:34.629Z,4.20
2018-11-26T04:32:02.654Z,4.20
2018-11-26T04:34:30.578Z,4.10
2018-11-26T04:36:58.878Z,4.10
2018-11-26T04:39:26.590Z,4.10
2018-11-26T04:41:54.572Z,4.10
2018-11-26T04:44:22.531Z,4.10
2018-11-26T04:46:53.023Z,4.10
2018-11-26T04:49:21.786Z,4.10
2018-11-26T04:51:49.690Z,4.10
2018-11-26T04:54:17.643Z,4.10
2018-11-26T04:56:45.603Z,4.10
2018-11-26T04:59:13.574Z,4.10
2018-11-26T05:01:42.422Z,4.10
2018-11-26T05:04:10.361Z,4.10
2018-11-26T05:06:38.530Z,4.10
2018-11-26T05:09:08.105Z,4.10
2018-11-26T05:11:36.112Z,4.00
2018-11-26T05:14:04.103Z,4.00
2018-11-26T05:16:32.330Z,4.00
2018-11-26T05:19:00.253Z,4.00
2018-11-26T05:21:28.213Z,4.00
2018-11-26T05:23:56.369Z,4.00
2018-11-26T05:26:24.363Z,3.90
2018-11-26T05:28:52.282Z,3.90
2018-11-26T05:31:20.197Z,3.90
2018-11-26T05:33:48.145Z,3.90
2018-11-26T05:36:16.119Z,3.90
2018-11-26T05:38:44.090Z,3.90
2018-11-26T05:41:12.126Z,3.90
2018-11-26T05:43:40.196Z,3.90
2018-11-26T05:46:08.683Z,3.90
2018-11-26T05:48:36.619Z,3.90
2018-11-26T05:51:04.576Z,3.90
2018-11-26T05:53:32.545Z,3.90
2018-11-26T05:56:00.465Z,3.80
2018-11-26T05:58:28.440Z,3.80
2018-11-26T06:00:56.409Z,3.80
2018-11-26T06:03:24.305Z,3.80
2018-11-26T06:05:52.233Z,3.80
2018-11-26T06:08:20.173Z,3.80
2018-11-26T06:10:48.178Z,3.70
2018-11-26T06:13:16.148Z,3.70
2018-11-26T06:15:44.119Z,3.80
2018-11-26T06:18:12.072Z,3.80
2018-11-26T06:20:40.068Z,3.70
2018-11-26T06:23:08.055Z,3.70
2018-11-26T06:25:35.986Z,3.70
2018-11-26T06:28:04.086Z,3.70
2018-11-26T06:30:32.006Z,3.60
2018-11-26T06:32:59.923Z,3.60
2018-11-26T06:35:27.855Z,3.60
2018-11-26T06:37:55.842Z,3.60
2018-11-26T06:40:23.832Z,3.60
2018-11-26T06:42:51.890Z,3.60
2018-11-26T06:45:21.486Z,3.60
2018-11-26T06:47:49.443Z,3.60
2018-11-26T06:50:17.907Z,3.60
2018-11-26T06:52:45.950Z,3.50
2018-11-26T06:55:14.461Z,3.50
2018-11-26T06:57:42.555Z,3.50
2018-11-26T07:00:11.120Z,3.50
2018-11-26T07:02:39.086Z,3.50
2018-11-26T07:05:08.501Z,3.50
2018-11-26T07:07:36.455Z,3.40
2018-11-26T07:10:04.819Z,3.40
2018-11-26T07:12:32.726Z,3.40
2018-11-26T07:15:00.735Z,3.40
2018-11-26T07:17:28.755Z,3.40
2018-11-26T07:19:56.788Z,3.40
2018-11-26T07:22:24.753Z,3.40
2018-11-26T07:24:52.737Z,3.30
2018-11-26T07:27:20.703Z,3.30
2018-11-26T07:29:48.665Z,3.40
2018-11-26T07:32:16.613Z,3.40
2018-11-26T07:34:44.554Z,3.40
2018-11-26T07:37:12.533Z,3.40
2018-11-26T07:39:40.502Z,3.40
2018-11-26T07:42:08.462Z,3.40
2018-11-26T07:44:36.385Z,3.40
2018-11-26T07:47:04.536Z,3.40
2018-11-26T07:49:32.456Z,3.30
2018-11-26T07:52:00.501Z,3.30
2018-11-26T07:54:28.440Z,3.30
2018-11-26T07:56:56.414Z,3.30
2018-11-26T07:59:24.417Z,3.30
2018-11-26T08:01:52.498Z,3.30
2018-11-26T08:04:20.473Z,3.30
2018-11-26T08:06:48.429Z,3.20
2018-11-26T08:09:16.395Z,3.20
2018-11-26T08:11:44.301Z,3.20
2018-11-26T08:14:12.257Z,3.30
2018-11-26T08:16:40.209Z,3.30
2018-11-26T08:19:08.129Z,3.30
2018-11-26T08:21:36.121Z,3.30
2018-11-26T08:24:04.040Z,3.30
2018-11-26T08:26:32.017Z,3.30
2018-11-26T08:28:59.956Z,3.30
2018-11-26T08:31:27.917Z,3.20
2018-11-26T08:33:55.909Z,3.30
2018-11-26T08:36:29.159Z,3.20
2018-11-26T08:39:02.503Z,3.20
2018-11-26T08:41:37.056Z,3.30
2018-11-26T08:44:10.525Z,3.20
2018-11-26T08:46:43.813Z,3.20
2018-11-26T08:49:17.017Z,3.20
2018-11-26T08:51:44.974Z,3.20
2018-11-26T08:54:13.045Z,3.20
2018-11-26T08:56:41.040Z,3.20
2018-11-26T08:59:08.967Z,3.20
2018-11-26T09:01:44.346Z,3.20
2018-11-26T09:04:17.583Z,3.30
2018-11-26T09:06:45.553Z,3.30
2018-11-26T09:09:13.529Z,3.30
2018-11-26T09:11:41.474Z,3.40
2018-11-26T09:14:09.488Z,3.40
2018-11-26T09:16:37.492Z,3.40
2018-11-26T09:19:05.624Z,3.50
2018-11-26T09:21:33.604Z,3.40
2018-11-26T09:24:01.569Z,3.40
2018-11-26T09:26:29.512Z,3.40
2018-11-26T09:28:57.499Z,3.30
2018-11-26T09:31:25.439Z,3.30
2018-11-26T09:33:53.661Z,3.30
2018-11-26T09:36:21.644Z,3.30
2018-11-26T09:38:49.590Z,3.30
2018-11-26T09:41:17.529Z,3.30
2018-11-26T09:43:45.455Z,3.30
2018-11-26T09:46:13.386Z,3.30
2018-11-26T09:48:41.413Z,3.30
2018-11-26T09:51:14.101Z,3.20
2018-11-26T09:53:37.310Z,3.20
2018-11-26T09:56:05.342Z,3.20
2018-11-26T09:58:33.338Z,3.30
2018-11-26T10:01:01.338Z,3.30
2018-11-26T10:03:29.403Z,3.20
2018-11-26T10:05:57.349Z,3.20
2018-11-26T10:08:25.298Z,3.20
2018-11-26T10:10:53.514Z,3.20
2018-11-26T10:13:21.489Z,3.30
2018-11-26T10:15:49.489Z,3.20
2018-11-26T10:18:17.486Z,3.20
2018-11-26T10:20:45.474Z,3.20
2018-11-26T10:23:13.398Z,3.20
2018-11-26T10:25:41.321Z,3.30
2018-11-26T10:28:09.318Z,3.30
2018-11-26T10:30:37.283Z,3.40
2018-11-26T10:33:05.540Z,3.40
2018-11-26T10:35:33.508Z,3.50
2018-11-26T10:38:01.478Z,3.50
2018-11-26T10:40:29.474Z,3.50
2018-11-26T10:42:57.461Z,3.50
2018-11-26T10:45:25.554Z,3.60
2018-11-26T10:47:53.532Z,3.60
2018-11-26T10:50:23.424Z,3.70
2018-11-26T10:52:52.023Z,3.70
2018-11-26T10:55:22.816Z,3.70
2018-11-26T10:57:50.765Z,3.70
2018-11-26T11:00:24.014Z,3.70
2018-11-26T11:02:52.438Z,3.70
2018-11-26T11:05:20.416Z,3.70
2018-11-26T11:07:48.369Z,3.70
2018-11-26T11:10:17.113Z,3.70
2018-11-26T11:12:45.029Z,3.70
2018-11-26T11:15:13.121Z,3.60
2018-11-26T11:17:41.112Z,3.60
2018-11-26T11:20:10.318Z,3.50
2018-11-26T11:22:38.320Z,3.50
2018-11-26T11:25:06.913Z,3.60
2018-11-26T11:27:34.909Z,3.60
2018-11-26T11:30:02.991Z,3.60
2018-11-26T11:32:30.995Z,3.60
2018-11-26T11:34:59.000Z,3.60
2018-11-26T11:37:26.970Z,3.60
2018-11-26T11:39:54.924Z,3.60
2018-11-26T11:42:22.924Z,3.60
2018-11-26T11:44:51.176Z,3.60
2018-11-26T11:47:18.924Z,3.60
2018-11-26T11:49:46.906Z,3.60
2018-11-26T11:52:14.995Z,3.60
2018-11-26T11:54:42.899Z,3.60
2018-11-26T11:57:10.822Z,3.50
2018-11-26T11:59:38.826Z,3.60
2018-11-26T12:02:07.307Z,3.60
2018-11-26T12:04:35.321Z,3.70
2018-11-26T12:07:03.299Z,3.80
2018-11-26T12:09:32.147Z,3.90
2018-11-26T12:12:00.162Z,3.90
2018-11-26T12:14:28.126Z,4.00
2018-11-26T12:16:56.078Z,4.10
2018-11-26T12:19:24.017Z,4.10
2018-11-26T12:21:52.033Z,4.10
2018-11-26T12:24:20.022Z,4.20
2018-11-26T12:26:48.010Z,4.20
2018-11-26T12:29:15.992Z,4.10
2018-11-26T12:31:43.993Z,4.10
2018-11-26T12:34:11.931Z,4.10
2018-11-26T12:36:40.173Z,4.10
2018-11-26T12:39:08.978Z,4.00
2018-11-26T12:41:37.237Z,4.00
2018-11-26T12:44:05.667Z,3.90
2018-11-26T12:46:33.621Z,3.90
2018-11-26T12:49:01.585Z,3.90
2018-11-26T12:51:29.508Z,3.70
2018-11-26T12:53:57.508Z,3.70
2018-11-26T12:56:25.434Z,3.80
2018-11-26T12:58:53.386Z,3.80
2018-11-26T13:01:21.352Z,3.80
2018-11-26T13:03:49.332Z,3.80
2018-11-26T13:06:17.281Z,3.80
2018-11-26T13:08:45.250Z,3.70
2018-11-26T13:11:13.227Z,3.70
2018-11-26T13:13:41.162Z,3.50
2018-11-26T13:16:09.137Z,3.50
2018-11-26T13:18:37.118Z,3.60
2018-11-26T13:21:05.181Z,3.50
2018-11-26T13:23:33.122Z,3.50
2018-11-26T13:26:01.572Z,3.50
2018-11-26T13:28:29.531Z,3.50
2018-11-26T13:30:57.444Z,3.50
2018-11-26T13:33:25.611Z,3.40
2018-11-26T13:35:53.548Z,3.50
2018-11-26T13:38:21.502Z,3.50
2018-11-26T13:40:49.487Z,3.50
2018-11-26T13:43:17.695Z,3.50
2018-11-26T13:45:46.376Z,3.50
2018-11-26T13:48:14.962Z,3.50
2018-11-26T13:50:43.968Z,3.40
2018-11-26T13:53:12.257Z,3.40
2018-11-26T13:55:40.477Z,3.40
2018-11-26T13:58:08.416Z,3.30
2018-11-26T14:00:36.370Z,3.30
2018-11-26T14:03:04.550Z,3.30
2018-11-26T14:05:32.950Z,3.30
2018-11-26T14:08:01.022Z,3.30
2018-11-26T14:10:29.054Z,3.30
2018-11-26T14:13:01.814Z,3.20
2018-11-26T14:15:29.739Z,3.20
2018-11-26T14:17:57.804Z,3.20
2018-11-26T14:20:25.788Z,3.20
2018-11-26T14:22:53.757Z,3.20
2018-11-26T14:25:21.745Z,3.20
2018-11-26T14:27:49.855Z,3.10
2018-11-26T14:30:18.369Z,3.10
2018-11-26T14:32:46.843Z,3.00
2018-11-26T14:35:14.916Z,3.00
2018-11-26T14:37:42.988Z,3.00
2018-11-26T14:40:12.854Z,3.00
2018-11-26T14:42:41.648Z,3.00
2018-11-26T14:45:10.454Z,3.00
2018-11-26T14:47:38.443Z,3.00
2018-11-26T14:50:08.347Z,3.00
2018-11-26T14:52:36.313Z,3.00
2018-11-26T14:55:04.479Z,3.00
2018-11-26T14:57:32.422Z,3.00
2018-11-26T15:00:00.401Z,3.00
2018-11-26T15:02:28.585Z,3.00
2018-11-26T15:04:56.565Z,3.00
2018-11-26T15:07:24.515Z,3.00
2018-11-26T15:09:52.512Z,3.00
2018-11-26T15:12:20.636Z,3.00
2018-11-26T15:14:48.781Z,3.10
2018-11-26T15:17:16.693Z,3.10
2018-11-26T15:19:44.606Z,3.10
2018-11-26T15:22:12.535Z,3.10
2018-11-26T15:24:40.483Z,3.10
2018-11-26T15:27:08.460Z,3.10
2018-11-26T15:29:36.435Z,3.10
2018-11-26T15:32:04.522Z,3.10
2018-11-26T15:34:32.434Z,3.20
2018-11-26T15:37:00.379Z,3.20
2018-11-26T15:39:28.606Z,3.20
2018-11-26T15:41:56.612Z,3.20
2018-11-26T15:44:24.610Z,3.20
2018-11-26T15:46:52.575Z,3.20
2018-11-26T15:49:20.552Z,3.20
2018-11-26T15:51:48.534Z,3.20
2018-11-26T15:54:16.507Z,3.20
2018-11-26T15:56:44.461Z,3.20
2018-11-26T15:59:12.430Z,3.20
2018-11-26T16:01:40.391Z,3.20
2018-11-26T16:04:08.425Z,3.20
2018-11-26T16:06:37.208Z,3.20
2018-11-26T16:09:07.743Z,3.20
2018-11-26T16:11:35.727Z,3.20
2018-11-26T16:14:03.726Z,3.20
2018-11-26T16:16:31.703Z,3.10
2018-11-26T16:18:59.684Z,3.10
2018-11-26T16:21:27.802Z,3.10
2018-11-26T16:23:55.750Z,3.00
2018-11-26T16:26:23.923Z,3.00
2018-11-26T16:28:51.900Z,3.00
2018-11-26T16:31:19.869Z,3.00
2018-11-26T16:33:47.851Z,3.00
2018-11-26T16:36:15.818Z,3.00
2018-11-26T16:38:43.806Z,2.90
2018-11-26T16:41:11.800Z,2.90
2018-11-26T16:43:39.747Z,2.90
2018-11-26T16:46:07.866Z,2.90
2018-11-26T16:48:35.784Z,2.90
2018-11-26T16:51:03.787Z,2.90
2018-11-26T16:53:31.783Z,2.90
2018-11-26T16:55:59.750Z,2.90
2018-11-26T16:58:27.743Z,3.00
2018-11-26T17:00:55.700Z,3.00
2018-11-26T17:03:23.680Z,3.00
2018-11-26T17:05:51.794Z,3.00
2018-11-26T17:08:19.778Z,3.00
2018-11-26T17:10:47.871Z,3.00
2018-11-26T17:13:16.090Z,3.00
2018-11-26T17:15:44.050Z,3.00
2018-11-26T17:18:12.005Z,3.00
2018-11-26T17:20:39.967Z,2.90
2018-11-26T17:23:07.968Z,2.90
2018-11-26T17:25:35.950Z,2.90
2018-11-26T17:28:04.119Z,2.80
2018-11-26T17:30:32.167Z,2.80
2018-11-26T17:33:01.310Z,2.80
2018-11-26T17:35:29.677Z,2.80
2018-11-26T17:37:57.731Z,2.80
2018-11-26T17:40:26.126Z,2.80
2018-11-26T17:42:54.246Z,2.80
2018-11-26T17:45:22.914Z,2.80
2018-11-26T17:47:52.403Z,2.80
2018-11-26T17:50:21.158Z,2.80
2018-11-26T17:52:49.107Z,2.80
2018-11-26T17:55:17.041Z,2.80
2018-11-26T17:57:45.003Z,2.90
2018-11-26T18:00:13.750Z,2.90
2018-11-26T18:02:42.267Z,2.90
2018-11-26T18:05:12.306Z,2.90
2018-11-26T18:07:40.290Z,2.90
2018-11-26T18:10:09.581Z,3.00
2018-11-26T18:12:37.522Z,3.00
2018-11-26T18:15:07.302Z,3.00
2018-11-26T18:17:35.294Z,3.00
2018-11-26T18:20:03.308Z,3.10
2018-11-26T18:22:31.301Z,3.10
2018-11-26T18:24:59.251Z,3.10
2018-11-26T18:27:27.290Z,3.10
2018-11-26T18:29:55.249Z,3.10
2018-11-26T18:32:23.187Z,3.10
2018-11-26T18:34:51.183Z,3.10
2018-11-26T18:37:19.227Z,3.10
2018-11-26T18:39:47.217Z,3.10
2018-11-26T18:42:15.253Z,3.10
2018-11-26T18:44:43.275Z,3.10
2018-11-26T18:47:11.210Z,3.20
2018-11-26T18:49:39.175Z,3.20
2018-11-26T18:52:07.146Z,3.20
2018-11-26T18:54:35.204Z,3.20
2018-11-26T18:57:03.136Z,3.20
2018-11-26T18:59:31.090Z,3.20
2018-11-26T19:01:59.016Z,3.20
2018-11-26T19:04:27.036Z,3.20
2018-11-26T19:06:55.036Z,3.20
2018-11-26T19:09:23.063Z,3.20
2018-11-26T19:11:51.025Z,3.20
2018-11-26T19:14:20.560Z,3.20
2018-11-26T19:16:49.419Z,3.20
2018-11-26T19:19:17.381Z,3.20
2018-11-26T19:21:45.322Z,3.20
2018-11-26T19:24:13.341Z,3.20
2018-11-26T19:26:41.313Z,3.20
2018-11-26T19:29:09.233Z,3.20
2018-11-26T19:31:37.381Z,3.20
2018-11-26T19:34:05.628Z,3.20
2018-11-26T19:36:33.693Z,3.30
2018-11-26T19:39:01.659Z,3.30
2018-11-26T19:41:30.151Z,3.30
2018-11-26T19:43:58.128Z,3.30
2018-11-26T19:46:26.121Z,3.30
2018-11-26T19:48:54.094Z,3.30
2018-11-26T19:51:22.225Z,3.30
2018-11-26T19:53:50.206Z,3.30
2018-11-26T19:56:18.225Z,3.30
2018-11-26T19:58:46.172Z,3.30
2018-11-26T20:01:14.203Z,3.30
2018-11-26T20:03:43.469Z,3.30
2018-11-26T20:06:13.854Z,3.30
2018-11-26T20:08:42.249Z,3.30
2018-11-26T20:11:12.574Z,3.40
2018-11-26T20:13:40.653Z,3.30
2018-11-26T20:16:10.571Z,3.30
2018-11-26T20:18:38.601Z,3.40
2018-11-26T20:21:06.808Z,3.40
2018-11-26T20:23:34.831Z,3.30
2018-11-26T20:26:02.806Z,3.30
2018-11-26T20:28:30.827Z,3.30
2018-11-26T20:30:58.840Z,3.30
2018-11-26T20:33:27.015Z,3.30
2018-11-26T20:35:54.993Z,3.30
2018-11-26T20:38:22.983Z,3.30
2018-11-26T20:40:50.925Z,3.30
2018-11-26T20:43:18.964Z,3.30
2018-11-26T20:45:47.632Z,3.30
2018-11-26T20:48:15.647Z,3.30
2018-11-26T20:50:44.595Z,3.30
2018-11-26T20:53:12.537Z,3.30
2018-11-26T20:55:40.533Z,3.30
2018-11-26T20:58:08.545Z,3.30
2018-11-26T21:00:36.514Z,3.30
2018-11-26T21:03:06.651Z,3.30
2018-11-26T21:05:34.677Z,3.30
2018-11-26T21:08:02.660Z,3.30
2018-11-26T21:10:30.642Z,3.30
2018-11-26T21:12:58.662Z,3.30
2018-11-26T21:15:26.685Z,3.30
2018-11-26T21:17:55.315Z,3.50
2018-11-26T21:20:25.011Z,3.30
2018-11-26T21:22:53.016Z,3.30
2018-11-26T21:25:21.065Z,3.30
2018-11-26T21:27:48.981Z,3.30
2018-11-26T21:30:17.517Z,3.30
2018-11-26T21:32:45.458Z,3.40
2018-11-26T21:35:14.022Z,3.40
2018-11-26T21:37:42.645Z,3.40
2018-11-26T21:40:11.194Z,3.40
2018-11-26T21:42:39.215Z,3.40
2018-11-26T21:46:12.379Z,3.40
2018-11-26T21:48:40.380Z,3.40
2018-11-26T21:51:08.364Z,3.40
2018-11-26T21:53:36.364Z,3.30
2018-11-26T21:56:04.374Z,3.30
2018-11-26T21:58:32.540Z,3.30
2018-11-26T22:01:01.135Z,3.30
2018-11-26T22:03:30.669Z,3.30
2018-11-26T22:05:57.198Z,3.30
2018-11-26T22:08:25.174Z,3.30
2018-11-26T22:10:53.173Z,3.30
2018-11-26T22:13:21.601Z,3.30
2018-11-26T22:15:49.528Z,3.30
2018-11-26T22:18:17.566Z,3.30
2018-11-26T22:20:45.530Z,3.30
2018-11-26T22:23:13.521Z,3.30
2018-11-26T22:25:41.525Z,3.30
2018-11-26T22:28:10.026Z,3.30
2018-11-26T22:30:38.172Z,3.30
2018-11-26T22:33:06.396Z,3.30
2018-11-26T22:35:34.362Z,3.30
2018-11-26T22:38:02.331Z,3.30
2018-11-26T22:40:30.312Z,3.30
2018-11-26T22:42:58.205Z,3.30
2018-11-26T22:45:28.711Z,3.30
2018-11-26T22:48:02.382Z,3.30
2018-11-26T22:50:30.369Z,3.30
2018-11-26T22:52:58.321Z,3.30
2018-11-26T22:55:26.339Z,3.30
2018-11-26T22:57:54.362Z,3.30
2018-11-26T23:00:25.063Z,3.30
2018-11-26T23:02:53.766Z,3.30
2018-11-26T23:05:21.737Z,3.30
2018-11-26T23:07:49.715Z,3.30
2018-11-26T23:10:17.712Z,3.30
2018-11-26T23:12:45.705Z,3.30
2018-11-26T23:15:14.377Z,3.30
2018-11-26T23:17:42.771Z,3.30
2018-11-26T23:20:14.349Z,3.30
2018-11-26T23:22:42.349Z,3.30
2018-11-26T23:25:18.665Z,3.30
2018-11-26T23:27:46.763Z,3.20
2018-11-26T23:30:15.277Z,3.30
2018-11-26T23:32:43.490Z,3.20
2018-11-26T23:35:11.459Z,3.20
2018-11-26T23:37:39.443Z,3.30
2018-11-26T23:40:09.042Z,3.20
2018-11-26T23:42:37.030Z,3.20
2018-11-26T23:45:07.017Z,3.20
2018-11-26T23:47:35.026Z,3.30
2018-11-26T23:50:03.018Z,3.20
2018-11-26T23:52:31.048Z,3.20
2018-11-26T23:54:58.987Z,3.20
2018-11-26T23:57:26.931Z,3.30
2018-11-26T23:59:54.936Z,3.20
